Time;durP1;ratioP1;P1;durP2;ratioP2;P2;SDS_P1;SDS_P2;PMS_P1;PMS_P2;Temp;Humidity;BMP_temperature;BMP_pressure;BME280_temperature;BME280_humidity;BME280_pressure;Samples;Min_cycle;Max_cycle;Signal;HPM_P1;HPM_P2
2021/10/14 00:02:00;;;;;;;23.00;21.20;;;;;;;;;;5097320;28;20488;-87
2021/10/14 00:04:29;;;;;;;22.37;20.97;;;;;;;;;;5098014;28;20884;-87
2021/10/14 00:06:57;;;;;;;23.90;22.03;;;;;;;;;;5098083;28;20415;-88
2021/10/14 00:09:25;;;;;;;24.30;22.60;;;;;;;;;;5097590;28;20473;-87
2021/10/14 00:11:52;;;;;;;25.40;22.87;;;;;;;;;;5098024;28;20414;-86
2021/10/14 00:14:19;;;;;;;25.60;23.67;;;;;;;;;;5097835;28;20421;-86
2021/10/14 00:16:47;;;;;;;25.03;22.70;;;;;;;;;;5097884;28;20468;-87
2021/10/14 00:19:14;;;;;;;26.87;24.80;;;;;;;;;;5097649;28;20444;-87
2021/10/14 00:21:43;;;;;;;26.53;24.63;;;;;;;;;;5097342;28;20490;-86
2021/10/14 00:24:11;;;;;;;27.13;25.10;;;;;;;;;;5097544;28;20415;-87
2021/10/14 00:26:38;;;;;;;28.43;26.17;;;;;;;;;;5096330;28;20497;-87
2021/10/14 00:29:06;;;;;;;32.30;29.70;;;;;;;;;;5097369;28;20571;-87
2021/10/14 00:31:33;;;;;;;32.37;29.37;;;;;;;;;;5097590;28;20934;-86
2021/10/14 00:34:01;;;;;;;31.83;29.20;;;;;;;;;;5097819;28;20789;-86
2021/10/14 00:36:28;;;;;;;35.43;32.13;;;;;;;;;;5097516;28;20437;-87
2021/10/14 00:38:57;;;;;;;37.40;33.97;;;;;;;;;;5097214;28;20441;-86
2021/10/14 00:41:24;;;;;;;37.70;34.37;;;;;;;;;;5097328;28;20418;-85
2021/10/14 00:43:56;;;;;;;36.67;33.47;;;;;;;;;;5097186;28;20454;-86
2021/10/14 00:46:23;;;;;;;38.17;34.67;;;;;;;;;;5097418;28;20415;-87
2021/10/14 00:48:51;;;;;;;39.80;36.30;;;;;;;;;;5096055;28;20826;-87
2021/10/14 00:51:18;;;;;;;37.27;34.20;;;;;;;;;;5097211;28;20875;-87
2021/10/14 00:53:47;;;;;;;39.63;36.13;;;;;;;;;;5096995;28;20448;-86
2021/10/14 00:56:17;;;;;;;33.83;31.13;;;;;;;;;;5096831;28;20808;-86
2021/10/14 00:58:44;;;;;;;39.83;35.87;;;;;;;;;;5097072;28;20410;-86
2021/10/14 01:01:11;;;;;;;35.40;32.60;;;;;;;;;;5095913;28;20422;-86
2021/10/14 01:03:39;;;;;;;38.43;35.13;;;;;;;;;;5096929;28;20411;-86
2021/10/14 01:06:06;;;;;;;35.43;32.33;;;;;;;;;;5096858;28;20444;-87
2021/10/14 01:08:33;;;;;;;35.63;32.13;;;;;;;;;;5096232;28;20433;-87
2021/10/14 01:11:01;;;;;;;33.87;31.30;;;;;;;;;;5096577;28;20424;-86
2021/10/14 01:13:30;;;;;;;37.80;34.60;;;;;;;;;;5096674;28;20403;-86
2021/10/14 01:15:57;;;;;;;35.13;32.23;;;;;;;;;;5096894;28;20422;-87
2021/10/14 01:18:25;;;;;;;38.23;34.70;;;;;;;;;;5095302;28;20448;-86
2021/10/14 01:20:54;;;;;;;38.73;35.43;;;;;;;;;;5096771;28;20450;-86
2021/10/14 01:23:22;;;;;;;37.47;34.30;;;;;;;;;;5096672;28;20407;-87
2021/10/14 01:25:49;;;;;;;40.33;36.87;;;;;;;;;;5096577;28;20405;-87
2021/10/14 01:28:17;;;;;;;37.97;34.97;;;;;;;;;;5095109;28;20506;-85
2021/10/14 01:30:44;;;;;;;39.87;35.90;;;;;;;;;;5095987;28;21068;-87
2021/10/14 01:33:12;;;;;;;35.33;32.23;;;;;;;;;;5096612;28;20772;-86
2021/10/14 01:35:39;;;;;;;37.97;34.67;;;;;;;;;;5094995;28;20486;-86
2021/10/14 01:38:08;;;;;;;41.33;37.03;;;;;;;;;;5096478;28;20415;-87
2021/10/14 01:40:36;;;;;;;39.87;36.30;;;;;;;;;;5096520;28;20435;-86
2021/10/14 01:43:03;;;;;;;42.00;38.20;;;;;;;;;;5096283;28;20414;-87
2021/10/14 01:45:30;;;;;;;41.83;38.20;;;;;;;;;;5096024;28;20426;-85
2021/10/14 01:47:58;;;;;;;39.00;35.47;;;;;;;;;;5095828;28;20418;-87
2021/10/14 01:50:25;;;;;;;44.30;40.28;;;;;;;;;;5095792;28;20492;-86
2021/10/14 01:52:53;;;;;;;41.87;37.57;;;;;;;;;;5095937;28;20636;-87
2021/10/14 01:55:21;;;;;;;43.97;39.47;;;;;;;;;;5095648;28;20518;-87
2021/10/14 01:57:49;;;;;;;44.70;40.20;;;;;;;;;;5095596;28;20986;-87
2021/10/14 02:00:16;;;;;;;41.90;38.20;;;;;;;;;;5095968;28;20467;-87
2021/10/14 02:02:44;;;;;;;43.90;39.35;;;;;;;;;;5095761;28;20446;-86
2021/10/14 02:05:11;;;;;;;44.27;40.30;;;;;;;;;;5095766;28;20213;-85
2021/10/14 02:07:38;;;;;;;48.10;43.17;;;;;;;;;;5095685;28;20949;-86
2021/10/14 02:10:06;;;;;;;49.17;44.00;;;;;;;;;;5095355;28;20491;-86
2021/10/14 02:12:35;;;;;;;49.10;44.17;;;;;;;;;;5095534;28;20441;-87
2021/10/14 02:15:03;;;;;;;53.07;47.70;;;;;;;;;;5095661;28;20482;-87
2021/10/14 02:17:30;;;;;;;57.87;46.60;;;;;;;;;;5095402;27;20466;-85
2021/10/14 02:19:58;;;;;;;48.77;43.70;;;;;;;;;;5093874;28;20411;-87
2021/10/14 02:22:25;;;;;;;48.23;43.33;;;;;;;;;;5095587;28;20461;-87
2021/10/14 02:24:52;;;;;;;57.40;49.23;;;;;;;;;;5093842;28;20445;-87
2021/10/14 02:27:20;;;;;;;50.27;45.27;;;;;;;;;;5094724;28;20813;-87
2021/10/14 02:29:49;;;;;;;49.75;44.65;;;;;;;;;;5094810;28;20448;-85
2021/10/14 02:32:16;;;;;;;49.27;44.40;;;;;;;;;;5094505;28;20203;-86
2021/10/14 02:34:44;;;;;;;52.90;47.30;;;;;;;;;;5094722;28;20411;-86
2021/10/14 02:37:11;;;;;;;54.80;46.43;;;;;;;;;;5095189;28;20193;-86
2021/10/14 02:39:39;;;;;;;51.57;46.23;;;;;;;;;;5094840;28;20907;-87
2021/10/14 02:42:06;;;;;;;51.17;45.73;;;;;;;;;;5094808;28;20955;-86
2021/10/14 02:44:34;;;;;;;54.87;48.27;;;;;;;;;;5095092;28;20932;-87
2021/10/14 02:47:02;;;;;;;49.47;44.40;;;;;;;;;;5095053;28;20921;-87
2021/10/14 02:49:30;;;;;;;55.13;49.40;;;;;;;;;;5093400;28;20539;-87
2021/10/14 02:51:57;;;;;;;56.33;49.77;;;;;;;;;;5094738;28;20459;-86
2021/10/14 02:54:24;;;;;;;54.97;49.10;;;;;;;;;;5094864;28;20450;-86
2021/10/14 02:56:52;;;;;;;52.17;46.60;;;;;;;;;;5094385;28;20483;-86
2021/10/14 02:59:19;;;;;;;49.37;44.50;;;;;;;;;;5094658;28;20765;-87
2021/10/14 03:01:47;;;;;;;52.27;46.87;;;;;;;;;;5093341;28;20445;-86
2021/10/14 03:04:16;;;;;;;52.87;46.07;;;;;;;;;;5094808;28;20419;-86
2021/10/14 03:06:43;;;;;;;52.40;46.80;;;;;;;;;;5094627;28;20430;-86
2021/10/14 03:09:10;;;;;;;52.00;46.80;;;;;;;;;;5094534;28;20433;-87
2021/10/14 03:11:38;;;;;;;52.60;47.00;;;;;;;;;;5094502;28;20415;-87
2021/10/14 03:14:05;;;;;;;46.17;41.67;;;;;;;;;;5094670;28;20801;-86
2021/10/14 03:16:33;;;;;;;48.30;43.80;;;;;;;;;;5094141;28;20451;-86
2021/10/14 03:19:00;;;;;;;49.93;45.13;;;;;;;;;;5094362;28;20405;-87
2021/10/14 03:21:29;;;;;;;50.57;45.37;;;;;;;;;;5094362;28;20411;-87
2021/10/14 03:23:56;;;;;;;52.47;47.00;;;;;;;;;;5094221;28;20436;-86
2021/10/14 03:26:24;;;;;;;51.33;45.83;;;;;;;;;;5093910;28;20408;-85
2021/10/14 03:28:53;;;;;;;51.90;46.90;;;;;;;;;;5093996;28;20418;-86
2021/10/14 03:31:20;;;;;;;48.50;43.50;;;;;;;;;;5093110;28;20875;-86
2021/10/14 03:33:48;;;;;;;50.30;45.17;;;;;;;;;;5094140;28;20423;-87
2021/10/14 03:36:15;;;;;;;50.53;44.83;;;;;;;;;;5094308;28;20418;-86
2021/10/14 03:38:45;;;;;;;52.50;45.97;;;;;;;;;;5092929;28;20922;-87
2021/10/14 03:41:12;;;;;;;51.07;45.53;;;;;;;;;;5093930;28;20403;-87
2021/10/14 03:43:39;;;;;;;53.33;46.80;;;;;;;;;;5094329;28;20431;-86
2021/10/14 03:46:07;;;;;;;57.03;47.77;;;;;;;;;;5094126;28;20444;-86
2021/10/14 03:48:34;;;;;;;51.80;46.40;;;;;;;;;;5093697;28;20448;-87
2021/10/14 03:51:01;;;;;;;56.67;50.67;;;;;;;;;;5093639;28;20458;-87
2021/10/14 03:53:29;;;;;;;56.95;51.05;;;;;;;;;;5092829;28;20811;-86
2021/10/14 03:55:58;;;;;;;57.03;50.93;;;;;;;;;;5093816;28;20194;-87
2021/10/14 03:58:25;;;;;;;57.80;51.20;;;;;;;;;;5094102;28;20883;-86
2021/10/14 04:00:53;;;;;;;64.53;51.13;;;;;;;;;;5093848;28;20470;-86
2021/10/14 04:03:20;;;;;;;66.27;54.53;;;;;;;;;;5093784;28;20460;-87
2021/10/14 04:05:48;;;;;;;76.37;55.67;;;;;;;;;;5093923;28;20440;-87
2021/10/14 04:08:15;;;;;;;80.77;58.30;;;;;;;;;;5093905;28;20433;-86
2021/10/14 04:10:42;;;;;;;71.70;54.23;;;;;;;;;;5093574;28;20466;-86
2021/10/14 04:13:11;;;;;;;68.50;56.57;;;;;;;;;;5093574;28;20447;-87
2021/10/14 04:15:38;;;;;;;70.33;55.97;;;;;;;;;;5093604;28;20443;-86
2021/10/14 04:18:07;;;;;;;64.80;56.03;;;;;;;;;;5093506;28;20450;-86
2021/10/14 04:20:35;;;;;;;73.73;54.70;;;;;;;;;;5093963;28;20450;-86
2021/10/14 04:23:02;;;;;;;66.07;56.75;;;;;;;;;;5093596;28;20411;-87
2021/10/14 04:25:29;;;;;;;68.37;55.67;;;;;;;;;;5093527;28;20189;-87
2021/10/14 04:27:57;;;;;;;64.70;52.87;;;;;;;;;;5093765;28;20873;-87
2021/10/14 04:30:25;;;;;;;66.33;56.13;;;;;;;;;;5093678;28;20970;-87
2021/10/14 04:32:53;;;;;;;71.47;54.37;;;;;;;;;;5093578;28;20436;-86
2021/10/14 04:35:21;;;;;;;67.30;52.23;;;;;;;;;;5093832;28;20437;-86
2021/10/14 04:37:49;;;;;;;80.03;56.20;;;;;;;;;;5093435;28;20472;-86
2021/10/14 04:40:17;;;;;;;73.93;55.15;;;;;;;;;;5093785;28;20775;-86
2021/10/14 04:42:44;;;;;;;65.97;53.37;;;;;;;;;;5095224;28;20647;-87
2021/10/14 04:45:11;;;;;;;69.53;55.00;;;;;;;;;;5097025;28;20436;-87
2021/10/14 04:47:40;;;;;;;66.80;55.20;;;;;;;;;;5096031;28;20480;-87
2021/10/14 04:50:08;;;;;;;82.97;57.70;;;;;;;;;;5097195;28;21026;-86
2021/10/14 04:52:36;;;;;;;69.87;58.03;;;;;;;;;;5097172;28;20419;-86
2021/10/14 04:55:04;;;;;;;64.57;53.10;;;;;;;;;;5096828;28;20455;-86
2021/10/14 04:57:31;;;;;;;71.83;54.13;;;;;;;;;;5095938;28;20459;-86
2021/10/14 04:59:58;;;;;;;66.93;55.43;;;;;;;;;;5096610;28;20450;-87
2021/10/14 05:02:26;;;;;;;80.97;56.60;;;;;;;;;;5096434;28;20415;-87
2021/10/14 05:04:55;;;;;;;80.03;57.77;;;;;;;;;;5096935;28;20410;-87
2021/10/14 05:07:22;;;;;;;70.90;56.60;;;;;;;;;;5097082;28;20510;-87
2021/10/14 05:09:50;;;;;;;71.67;58.00;;;;;;;;;;5096504;28;20429;-85
2021/10/14 05:12:19;;;;;;;81.50;60.33;;;;;;;;;;5096570;28;20905;-86
2021/10/14 05:14:46;;;;;;;86.43;55.43;;;;;;;;;;5096473;28;20415;-86
2021/10/14 05:17:13;;;;;;;73.93;57.20;;;;;;;;;;5096594;28;21114;-87
2021/10/14 05:19:41;;;;;;;73.63;55.43;;;;;;;;;;5096659;28;20407;-86
2021/10/14 05:22:09;;;;;;;75.70;58.97;;;;;;;;;;5096300;28;20398;-87
2021/10/14 05:24:37;;;;;;;90.77;60.70;;;;;;;;;;5095105;28;20422;-86
2021/10/14 05:27:04;;;;;;;89.03;56.80;;;;;;;;;;5096296;28;20554;-86
2021/10/14 05:29:32;;;;;;;98.97;61.07;;;;;;;;;;5096229;28;20430;-87
2021/10/14 05:31:59;;;;;;;89.00;59.47;;;;;;;;;;5096123;28;20968;-86
2021/10/14 05:34:26;;;;;;;77.77;57.10;;;;;;;;;;5096412;28;20487;-86
2021/10/14 05:36:54;;;;;;;75.47;54.93;;;;;;;;;;5096187;28;20436;-84
2021/10/14 05:39:23;;;;;;;88.83;61.50;;;;;;;;;;5096358;28;20418;-86
2021/10/14 05:41:50;;;;;;;91.30;54.77;;;;;;;;;;5096256;28;20422;-86
2021/10/14 05:44:17;;;;;;;100.20;62.53;;;;;;;;;;5095869;28;20424;-86
2021/10/14 05:46:45;;;;;;;90.80;60.20;;;;;;;;;;5095910;28;20445;-85
2021/10/14 05:49:12;;;;;;;99.87;62.90;;;;;;;;;;5095915;28;20428;-86
2021/10/14 05:51:40;;;;;;;106.07;62.80;;;;;;;;;;5095757;28;20492;-86
2021/10/14 05:54:07;;;;;;;101.90;63.13;;;;;;;;;;5095265;28;20441;-86
2021/10/14 05:56:36;;;;;;;105.33;63.87;;;;;;;;;;5095466;28;20469;-86
2021/10/14 05:59:03;;;;;;;122.73;70.13;;;;;;;;;;5095895;28;20426;-86
2021/10/14 06:01:31;;;;;;;157.53;72.67;;;;;;;;;;5095636;28;20419;-86
2021/10/14 06:03:58;;;;;;;119.03;69.50;;;;;;;;;;5095698;28;20443;-86
2021/10/14 06:06:26;;;;;;;126.30;67.43;;;;;;;;;;5095302;28;20422;-86
2021/10/14 06:08:53;;;;;;;131.03;67.00;;;;;;;;;;5095633;28;20443;-86
2021/10/14 06:11:21;;;;;;;142.93;73.57;;;;;;;;;;5095675;28;20828;-86
2021/10/14 06:13:50;;;;;;;138.90;70.20;;;;;;;;;;5095859;28;20415;-86
2021/10/14 06:16:17;;;;;;;131.63;73.40;;;;;;;;;;5095187;28;20971;-86
2021/10/14 06:18:44;;;;;;;135.90;71.53;;;;;;;;;;5095613;28;20418;-86
2021/10/14 06:21:12;;;;;;;131.77;70.27;;;;;;;;;;5095092;28;20447;-86
2021/10/14 06:23:39;;;;;;;131.93;67.73;;;;;;;;;;5095160;28;20415;-86
2021/10/14 06:26:06;;;;;;;134.73;68.57;;;;;;;;;;5095282;28;20443;-86
2021/10/14 06:28:34;;;;;;;120.70;62.63;;;;;;;;;;5094994;28;20440;-86
2021/10/14 06:31:03;;;;;;;133.33;65.23;;;;;;;;;;5094957;28;20851;-85
2021/10/14 06:33:30;;;;;;;117.63;64.20;;;;;;;;;;5094995;28;20415;-85
2021/10/14 06:35:58;;;;;;;141.20;64.87;;;;;;;;;;5095243;28;20415;-86
2021/10/14 06:38:25;;;;;;;136.57;67.30;;;;;;;;;;5094633;28;20483;-86
2021/10/14 06:40:52;;;;;;;107.13;62.07;;;;;;;;;;5095110;28;20790;-86
2021/10/14 06:43:20;;;;;;;124.33;61.60;;;;;;;;;;5094938;28;21103;-86
2021/10/14 06:45:50;;;;;;;134.10;66.37;;;;;;;;;;5094685;28;20440;-85
2021/10/14 06:48:19;;;;;;;143.93;67.30;;;;;;;;;;5094682;28;20414;-86
2021/10/14 06:50:46;;;;;;;137.63;65.77;;;;;;;;;;5093367;28;20462;-84
2021/10/14 06:53:14;;;;;;;138.60;63.50;;;;;;;;;;5094427;28;20403;-85
2021/10/14 06:55:42;;;;;;;147.53;67.50;;;;;;;;;;5094694;28;20885;-86
2021/10/14 06:58:09;;;;;;;154.77;67.57;;;;;;;;;;5094073;28;20454;-85
2021/10/14 07:00:37;;;;;;;139.97;66.10;;;;;;;;;;5094689;28;20456;-86
2021/10/14 07:03:05;;;;;;;187.03;71.93;;;;;;;;;;5094745;28;20456;-86
2021/10/14 07:05:33;;;;;;;132.13;65.07;;;;;;;;;;5094107;28;20443;-85
2021/10/14 07:08:01;;;;;;;118.67;58.27;;;;;;;;;;5094475;27;20435;-86
2021/10/14 07:10:29;;;;;;;145.10;67.07;;;;;;;;;;5093167;28;20426;-84
2021/10/14 07:12:56;;;;;;;124.63;61.77;;;;;;;;;;5094173;28;20820;-84
2021/10/14 07:15:23;;;;;;;127.53;61.07;;;;;;;;;;5094142;28;20416;-84
2021/10/14 07:17:51;;;;;;;152.00;65.83;;;;;;;;;;5094184;28;20443;-86
2021/10/14 07:20:18;;;;;;;136.03;65.30;;;;;;;;;;5094185;28;20411;-86
2021/10/14 07:22:47;;;;;;;141.77;62.70;;;;;;;;;;5094314;28;20433;-84
2021/10/14 07:25:14;;;;;;;128.50;58.77;;;;;;;;;;5093803;28;20448;-85
2021/10/14 07:27:42;;;;;;;104.37;58.30;;;;;;;;;;5092092;28;20418;-84
2021/10/14 07:30:10;;;;;;;108.30;56.60;;;;;;;;;;5092915;28;20434;-86
2021/10/14 07:32:38;;;;;;;111.50;56.10;;;;;;;;;;5092353;28;20492;-86
2021/10/14 07:35:06;;;;;;;101.27;53.10;;;;;;;;;;5094146;28;20418;-86
2021/10/14 07:37:33;;;;;;;103.23;54.77;;;;;;;;;;5094316;28;20893;-86
2021/10/14 07:40:02;;;;;;;104.53;56.17;;;;;;;;;;5094441;28;20454;-85
2021/10/14 07:42:29;;;;;;;94.47;56.30;;;;;;;;;;5093671;28;20415;-84
2021/10/14 07:44:57;;;;;;;85.40;52.90;;;;;;;;;;5093464;28;20441;-84
2021/10/14 07:47:24;;;;;;;74.13;49.57;;;;;;;;;;5093486;28;20443;-84
2021/10/14 07:49:51;;;;;;;78.43;49.90;;;;;;;;;;5093457;28;20403;-85
2021/10/14 07:52:19;;;;;;;78.07;48.17;;;;;;;;;;5093840;28;20466;-85
2021/10/14 07:54:46;;;;;;;76.07;47.63;;;;;;;;;;5093860;28;20437;-85
2021/10/14 07:57:15;;;;;;;103.63;52.00;;;;;;;;;;5093079;28;20460;-84
2021/10/14 07:59:43;;;;;;;99.37;52.87;;;;;;;;;;5093659;28;20412;-84
2021/10/14 08:02:11;;;;;;;96.50;52.80;;;;;;;;;;5093112;28;20415;-84
2021/10/14 08:04:38;;;;;;;96.07;50.77;;;;;;;;;;5093599;28;20483;-85
2021/10/14 08:07:06;;;;;;;118.57;56.70;;;;;;;;;;5093612;28;20435;-86
2021/10/14 08:09:33;;;;;;;104.47;53.90;;;;;;;;;;5093576;28;20437;-85
2021/10/14 08:12:00;;;;;;;114.70;56.67;;;;;;;;;;5093448;28;20570;-83
2021/10/14 08:14:29;;;;;;;120.90;58.27;;;;;;;;;;5093625;28;20471;-86
2021/10/14 08:16:57;;;;;;;132.87;60.47;;;;;;;;;;5094549;28;20935;-86
2021/10/14 08:19:24;;;;;;;110.83;58.17;;;;;;;;;;5097585;28;20415;-85
2021/10/14 08:21:52;;;;;;;113.87;56.83;;;;;;;;;;5097334;28;20423;-85
2021/10/14 08:24:20;;;;;;;128.13;60.03;;;;;;;;;;5097561;28;20423;-83
2021/10/14 08:26:47;;;;;;;123.10;59.60;;;;;;;;;;5097296;28;20545;-85
2021/10/14 08:29:16;;;;;;;148.70;65.53;;;;;;;;;;5097292;28;20422;-85
2021/10/14 08:31:45;;;;;;;116.60;60.20;;;;;;;;;;5097249;28;20456;-85
2021/10/14 08:34:12;;;;;;;136.87;61.13;;;;;;;;;;5097290;28;20417;-84
2021/10/14 08:36:41;;;;;;;131.47;58.83;;;;;;;;;;5096941;28;20780;-84
2021/10/14 08:39:08;;;;;;;124.37;59.27;;;;;;;;;;5097215;28;20414;-85
2021/10/14 08:41:35;;;;;;;106.50;56.50;;;;;;;;;;5097389;28;20456;-86
2021/10/14 08:44:03;;;;;;;128.57;59.47;;;;;;;;;;5096943;28;20407;-85
2021/10/14 08:46:31;;;;;;;101.37;55.03;;;;;;;;;;5095928;28;20418;-88
2021/10/14 08:49:00;;;;;;;136.77;61.47;;;;;;;;;;5096685;28;20427;-84
2021/10/14 08:51:28;;;;;;;97.40;55.03;;;;;;;;;;5096615;28;20445;-84
2021/10/14 08:53:55;;;;;;;111.47;55.67;;;;;;;;;;5096877;28;20517;-85
2021/10/14 08:56:23;;;;;;;108.37;57.40;;;;;;;;;;5096481;28;20548;-84
2021/10/14 08:58:51;;;;;;;88.27;55.07;;;;;;;;;;5096529;28;20444;-85
2021/10/14 09:01:18;;;;;;;82.17;52.57;;;;;;;;;;5095735;28;20788;-86
2021/10/14 09:03:48;;;;;;;84.90;54.70;;;;;;;;;;5096779;28;20922;-85
2021/10/14 09:06:17;;;;;;;69.90;47.50;;;;;;;;;;5096781;28;20448;-84
2021/10/14 09:08:46;;;;;;;71.03;48.20;;;;;;;;;;5094830;28;20427;-84
2021/10/14 09:11:14;;;;;;;78.33;48.93;;;;;;;;;;5096018;28;20411;-85
2021/10/14 09:13:49;;;;;;;85.87;52.00;;;;;;;;;;5096229;28;20443;-85
2021/10/14 09:16:21;;;;;;;89.73;53.20;;;;;;;;;;5096335;28;20472;-85
2021/10/14 09:18:49;;;;;;;111.70;55.83;;;;;;;;;;5096349;28;20457;-84
2021/10/14 09:21:23;;;;;;;127.97;60.47;;;;;;;;;;5096368;28;20443;-84
2021/10/14 09:23:50;;;;;;;113.23;56.90;;;;;;;;;;5095968;28;20429;-84
2021/10/14 09:26:28;;;;;;;147.53;66.07;;;;;;;;;;5094919;28;20446;-86
2021/10/14 09:29:06;;;;;;;139.80;65.10;;;;;;;;;;5096099;28;20407;-86
2021/10/14 09:31:46;;;;;;;144.73;66.80;;;;;;;;;;5096195;28;20452;-85
2021/10/14 09:34:22;;;;;;;139.37;68.07;;;;;;;;;;5096009;28;20419;-84
2021/10/14 09:36:51;;;;;;;166.87;74.40;;;;;;;;;;5095739;28;20459;-84
2021/10/14 09:39:19;;;;;;;148.20;69.70;;;;;;;;;;5095730;28;20430;-85
2021/10/14 09:41:47;;;;;;;168.03;73.67;;;;;;;;;;5095769;28;20422;-84
2021/10/14 09:44:15;;;;;;;147.97;70.87;;;;;;;;;;5095517;28;20769;-84
2021/10/14 09:46:43;;;;;;;152.37;74.10;;;;;;;;;;5095696;28;20455;-85
2021/10/14 09:49:11;;;;;;;137.80;67.87;;;;;;;;;;5095460;28;20441;-84
2021/10/14 09:51:39;;;;;;;143.63;72.13;;;;;;;;;;5095573;28;20570;-84
2021/10/14 09:54:08;;;;;;;115.70;65.33;;;;;;;;;;5095622;28;21016;-85
2021/10/14 09:56:35;;;;;;;119.00;60.23;;;;;;;;;;5094941;28;20458;-84
2021/10/14 09:59:02;;;;;;;110.53;62.10;;;;;;;;;;5095024;28;20412;-85
2021/10/14 10:01:31;;;;;;;131.43;66.20;;;;;;;;;;5095060;28;20425;-85
2021/10/14 10:03:58;;;;;;;129.80;66.57;;;;;;;;;;5095271;28;20423;-84
2021/10/14 10:06:27;;;;;;;114.93;67.23;;;;;;;;;;5095429;28;20399;-84
2021/10/14 10:08:55;;;;;;;109.83;62.50;;;;;;;;;;5095146;28;20479;-85
2021/10/14 10:11:25;;;;;;;108.40;60.07;;;;;;;;;;5095093;28;20407;-85
2021/10/14 10:13:53;;;;;;;103.20;61.27;;;;;;;;;;5095129;28;20896;-84
2021/10/14 10:16:21;;;;;;;117.67;67.17;;;;;;;;;;5095069;28;20480;-85
2021/10/14 10:18:49;;;;;;;114.70;65.53;;;;;;;;;;5095178;28;20418;-85
2021/10/14 10:21:35;;;;;;;122.30;64.90;;;;;;;;;;5095101;27;20457;-85
2021/10/14 10:24:03;;;;;;;90.13;60.00;;;;;;;;;;5094768;28;20422;-84
2021/10/14 10:26:50;;;;;;;103.67;64.40;;;;;;;;;;5094947;28;20439;-84
2021/10/14 10:29:35;;;;;;;111.33;63.57;;;;;;;;;;5094776;28;20821;-85
2021/10/14 10:32:16;;;;;;;102.73;62.73;;;;;;;;;;5093428;28;20832;-85
2021/10/14 10:34:50;;;;;;;109.87;66.63;;;;;;;;;;5094552;28;20560;-84
2021/10/14 10:37:19;;;;;;;103.13;64.07;;;;;;;;;;5094445;28;20432;-85
2021/10/14 10:39:49;;;;;;;103.57;66.70;;;;;;;;;;5094104;28;20415;-84
2021/10/14 10:42:17;;;;;;;107.57;65.43;;;;;;;;;;5094543;28;20414;-85
2021/10/14 10:44:46;;;;;;;96.23;60.67;;;;;;;;;;5094253;28;20415;-84
2021/10/14 10:47:31;;;;;;;92.03;61.57;;;;;;;;;;5094369;28;20408;-85
2021/10/14 10:50:01;;;;;;;99.60;62.20;;;;;;;;;;5094156;28;20411;-85
2021/10/14 10:52:32;;;;;;;87.67;56.77;;;;;;;;;;5094547;28;20480;-84
2021/10/14 10:55:00;;;;;;;95.17;65.77;;;;;;;;;;5094233;28;20433;-85
2021/10/14 10:57:48;;;;;;;104.60;63.20;;;;;;;;;;5093921;28;20443;-84
2021/10/14 11:00:17;;;;;;;96.33;64.10;;;;;;;;;;5094397;28;20412;-84
2021/10/14 11:02:44;;;;;;;97.57;62.63;;;;;;;;;;5094293;28;20437;-84
2021/10/14 11:05:15;;;;;;;73.53;55.90;;;;;;;;;;5092800;28;20833;-84
2021/10/14 11:07:43;;;;;;;80.00;59.17;;;;;;;;;;5093112;28;20419;-84
2021/10/14 11:10:10;;;;;;;79.70;57.33;;;;;;;;;;5093692;28;21166;-84
2021/10/14 11:12:38;;;;;;;75.40;57.00;;;;;;;;;;5094119;28;20459;-84
2021/10/14 11:15:17;;;;;;;71.53;54.40;;;;;;;;;;5093980;28;20430;-84
2021/10/14 11:17:45;;;;;;;76.83;56.87;;;;;;;;;;5093904;28;20450;-84
2021/10/14 11:20:14;;;;;;;76.00;58.67;;;;;;;;;;5094051;28;20818;-84
2021/10/14 11:22:48;;;;;;;73.37;56.47;;;;;;;;;;5093816;28;20415;-83
2021/10/14 11:25:16;;;;;;;82.40;59.43;;;;;;;;;;5093911;28;20424;-85
2021/10/14 11:27:46;;;;;;;74.37;58.07;;;;;;;;;;5092456;28;20530;-84
2021/10/14 11:30:19;;;;;;;73.00;56.50;;;;;;;;;;5094245;28;20491;-84
2021/10/14 11:32:53;;;;;;;67.73;54.30;;;;;;;;;;5094357;28;20545;-85
2021/10/14 11:35:24;;;;;;;78.77;56.57;;;;;;;;;;5093934;28;20495;-83
2021/10/14 11:37:51;;;;;;;73.80;55.20;;;;;;;;;;5093600;28;20423;-83
2021/10/14 11:40:33;;;;;;;74.83;54.80;;;;;;;;;;5093784;28;20478;-85
2021/10/14 11:43:02;;;;;;;72.33;55.50;;;;;;;;;;5094486;28;20442;-85
2021/10/14 11:45:29;;;;;;;58.83;51.33;;;;;;;;;;5093922;28;20423;-85
2021/10/14 11:47:56;;;;;;;69.93;52.73;;;;;;;;;;5093734;28;20881;-83
2021/10/14 11:50:27;;;;;;;70.67;55.90;;;;;;;;;;5093179;28;20444;-83
2021/10/14 11:53:02;;;;;;;68.60;52.00;;;;;;;;;;5095590;28;20472;-83
2021/10/14 11:55:30;;;;;;;63.67;54.87;;;;;;;;;;5097755;28;20914;-84
2021/10/14 11:57:58;;;;;;;64.70;55.97;;;;;;;;;;5096931;28;20480;-84
2021/10/14 12:00:26;;;;;;;73.30;56.00;;;;;;;;;;5097787;28;20450;-83
2021/10/14 12:02:53;;;;;;;69.53;54.70;;;;;;;;;;5097199;28;20885;-84
2021/10/14 12:05:22;;;;;;;72.57;54.30;;;;;;;;;;5095579;28;20473;-84
2021/10/14 12:07:56;;;;;;;66.87;56.27;;;;;;;;;;5097507;28;20485;-84
2021/10/14 12:10:33;;;;;;;72.63;57.20;;;;;;;;;;5097205;28;20798;-84
2021/10/14 12:13:04;;;;;;;71.83;53.97;;;;;;;;;;5097147;28;20951;-83
2021/10/14 12:15:31;;;;;;;72.27;55.20;;;;;;;;;;5096847;28;20419;-83
2021/10/14 12:17:59;;;;;;;65.63;53.30;;;;;;;;;;5095887;28;20473;-83
2021/10/14 12:20:27;;;;;;;60.87;47.77;;;;;;;;;;5096938;28;20417;-83
2021/10/14 12:22:57;;;;;;;77.50;55.87;;;;;;;;;;5097056;28;20415;-85
2021/10/14 12:25:30;;;;;;;69.23;54.23;;;;;;;;;;5097148;28;20467;-85
2021/10/14 12:27:59;;;;;;;84.17;59.30;;;;;;;;;;5096754;28;20416;-85
2021/10/14 12:30:28;;;;;;;72.53;55.37;;;;;;;;;;5096819;28;20432;-84
2021/10/14 12:32:57;;;;;;;72.43;55.23;;;;;;;;;;5096329;28;20451;-84
2021/10/14 12:35:25;;;;;;;78.50;58.00;;;;;;;;;;5096623;28;20425;-82
2021/10/14 12:38:06;;;;;;;72.37;57.17;;;;;;;;;;5096643;28;20418;-83
2021/10/14 12:40:34;;;;;;;75.13;57.50;;;;;;;;;;5096755;28;20423;-84
2021/10/14 12:43:08;;;;;;;76.13;58.47;;;;;;;;;;5096706;28;20434;-84
2021/10/14 12:45:57;;;;;;;75.03;57.87;;;;;;;;;;5096602;28;20531;-83
2021/10/14 12:48:33;;;;;;;80.70;60.43;;;;;;;;;;5096453;28;20788;-84
2021/10/14 12:51:11;;;;;;;68.57;55.50;;;;;;;;;;5096311;28;20789;-84
2021/10/14 12:53:44;;;;;;;75.93;57.27;;;;;;;;;;5096052;28;20462;-84
2021/10/14 12:56:13;;;;;;;77.20;56.23;;;;;;;;;;5096166;28;21010;-83
2021/10/14 12:58:41;;;;;;;72.10;57.00;;;;;;;;;;5096144;28;20432;-83
2021/10/14 13:01:10;;;;;;;71.70;56.80;;;;;;;;;;5096499;28;20419;-84
2021/10/14 13:03:38;;;;;;;70.07;52.03;;;;;;;;;;5095873;28;20434;-84
2021/10/14 13:06:05;;;;;;;78.40;59.83;;;;;;;;;;5096105;28;20435;-84
2021/10/14 13:08:36;;;;;;;77.80;59.90;;;;;;;;;;5095735;28;20436;-83
2021/10/14 13:11:07;;;;;;;79.80;62.40;;;;;;;;;;5096042;28;20462;-84
2021/10/14 13:13:34;;;;;;;81.63;60.60;;;;;;;;;;5095554;28;20542;-84
2021/10/14 13:16:02;;;;;;;80.67;62.27;;;;;;;;;;5095437;28;20792;-84
2021/10/14 13:18:30;;;;;;;74.70;60.83;;;;;;;;;;5095578;28;20776;-84
2021/10/14 13:20:58;;;;;;;78.27;59.80;;;;;;;;;;5095570;28;20396;-83
2021/10/14 13:23:26;;;;;;;79.33;58.90;;;;;;;;;;5095453;28;20926;-84
2021/10/14 13:25:53;;;;;;;71.23;57.93;;;;;;;;;;5095591;28;20453;-83
2021/10/14 13:28:25;;;;;;;78.03;58.33;;;;;;;;;;5095955;28;20420;-83
2021/10/14 13:30:52;;;;;;;70.40;55.80;;;;;;;;;;5095778;28;20435;-84
2021/10/14 13:33:21;;;;;;;63.43;54.17;;;;;;;;;;5095508;28;20471;-83
2021/10/14 13:35:49;;;;;;;69.63;56.50;;;;;;;;;;5095505;28;20441;-82
2021/10/14 13:38:17;;;;;;;68.07;54.20;;;;;;;;;;5095701;27;20468;-84
2021/10/14 13:40:48;;;;;;;67.40;57.90;;;;;;;;;;5095605;28;20444;-83
2021/10/14 13:43:18;;;;;;;64.03;55.70;;;;;;;;;;5095727;28;20445;-84
2021/10/14 13:45:47;;;;;;;61.00;54.33;;;;;;;;;;5095178;28;20545;-84
2021/10/14 13:48:14;;;;;;;66.93;55.20;;;;;;;;;;5095132;28;20444;-84
2021/10/14 13:50:43;;;;;;;59.93;51.60;;;;;;;;;;5095436;28;20408;-83
2021/10/14 13:53:10;;;;;;;57.80;51.47;;;;;;;;;;5095172;28;21041;-84
2021/10/14 13:55:38;;;;;;;64.70;54.37;;;;;;;;;;5095266;28;20436;-84
2021/10/14 13:58:05;;;;;;;63.03;52.53;;;;;;;;;;5094480;28;20538;-83
2021/10/14 14:00:33;;;;;;;56.07;49.00;;;;;;;;;;5095263;28;20419;-83
2021/10/14 14:03:02;;;;;;;60.33;51.80;;;;;;;;;;5095082;28;20441;-83
2021/10/14 14:05:29;;;;;;;63.90;56.10;;;;;;;;;;5095124;28;20438;-84
2021/10/14 14:07:57;;;;;;;67.00;54.00;;;;;;;;;;5094934;28;20419;-83
2021/10/14 14:10:24;;;;;;;67.13;56.47;;;;;;;;;;5095149;28;20441;-84
2021/10/14 14:12:51;;;;;;;73.03;56.00;;;;;;;;;;5095088;28;20448;-84
2021/10/14 14:15:19;;;;;;;72.47;57.43;;;;;;;;;;5093687;28;20871;-83
2021/10/14 14:17:46;;;;;;;71.80;57.20;;;;;;;;;;5094694;28;20443;-84
2021/10/14 14:20:15;;;;;;;67.40;56.40;;;;;;;;;;5094567;28;20408;-84
2021/10/14 14:22:42;;;;;;;66.10;57.37;;;;;;;;;;5094469;28;20429;-83